Time;durP1;ratioP1;P1;durP2;ratioP2;P2;SDS_P1;SDS_P2;PMS_P1;PMS_P2;Temp;Humidity;BMP_temperature;BMP_pressure;BME280_temperature;BME280_humidity;BME280_pressure;Samples;Min_cycle;Max_cycle;Signal;HPM_P1;HPM_P2
2023/03/27 00:04:14;;;;;;;6.40;2.17;;;;;;;4.77;100.00;101605.63;10373361;28;20045;-78
2023/03/27 00:09:15;;;;;;;6.68;2.63;;;;;;;4.96;100.00;101614.66;10377434;28;20500;-78
2023/03/27 00:14:16;;;;;;;1.95;1.80;;;;;;;5.00;100.00;101618.75;10396620;28;20437;-78
2023/03/27 00:19:17;;;;;;;8.90;2.75;;;;;;;4.90;100.00;101633.03;10395958;28;20117;-79
2023/03/27 00:24:18;;;;;;;10.70;1.98;;;;;;;4.80;100.00;101632.19;10395444;28;20046;-78
2023/03/27 00:29:18;;;;;;;4.15;2.20;;;;;;;4.75;100.00;101655.91;10380273;28;20033;-78
2023/03/27 00:34:19;;;;;;;11.20;1.75;;;;;;;4.67;100.00;101661.13;10379915;28;20073;-78
2023/03/27 00:39:19;;;;;;;4.47;1.80;;;;;;;4.67;100.00;101658.44;10378650;28;20034;-78
2023/03/27 00:44:29;;;;;;;4.65;2.17;;;;;;;4.75;100.00;101671.16;10378481;28;20169;-78
2023/03/27 00:49:32;;;;;;;6.45;2.38;;;;;;;4.80;100.00;101683.16;10394764;28;20029;-78
2023/03/27 00:54:34;;;;;;;5.95;1.67;;;;;;;4.79;100.00;101694.91;10396365;28;20034;-78
2023/03/27 00:59:36;;;;;;;3.28;1.40;;;;;;;4.61;100.00;101693.88;10378163;28;20030;-78
2023/03/27 01:04:37;;;;;;;2.60;1.27;;;;;;;4.53;100.00;101694.59;10378937;28;20029;-78
2023/03/27 01:09:37;;;;;;;2.88;1.30;;;;;;;4.42;100.00;101690.19;10377080;28;20033;-78
2023/03/27 01:15:19;;;;;;;3.20;1.58;;;;;;;4.22;100.00;101684.91;10393799;28;20064;-78
2023/03/27 01:20:22;;;;;;;4.65;1.60;;;;;;;3.94;100.00;101696.22;10375874;28;20129;-78
2023/03/27 01:25:31;;;;;;;4.25;1.15;;;;;;;3.97;100.00;101704.00;10379161;28;20046;-78
2023/03/27 01:30:35;;;;;;;5.93;1.73;;;;;;;4.19;100.00;101716.38;10377880;28;20042;-78
2023/03/27 01:35:53;;;;;;;3.30;1.85;;;;;;;4.37;100.00;101731.78;10376522;28;20464;-78
2023/03/27 01:41:04;;;;;;;7.78;2.47;;;;;;;4.41;100.00;101739.44;10377769;28;20026;-78
2023/03/27 01:46:16;;;;;;;11.88;2.17;;;;;;;4.37;100.00;101745.19;10376778;28;20034;-78
2023/03/27 01:51:24;;;;;;;3.38;1.92;;;;;;;4.16;100.00;101743.44;10391606;28;20135;-78
2023/03/27 01:56:26;;;;;;;6.07;2.17;;;;;;;3.80;100.00;101747.50;10392509;28;20034;-78
2023/03/27 02:01:38;;;;;;;1.60;1.50;;;;;;;3.57;100.00;101748.63;10375547;28;20489;-78
2023/03/27 02:06:53;;;;;;;1.20;1.20;;;;;;;3.54;100.00;101762.28;10375949;28;20026;-78
2023/03/27 02:12:07;;;;;;;2.30;2.10;;;;;;;3.60;100.00;101777.81;10376587;28;20037;-78
2023/03/27 02:17:09;;;;;;;1.65;1.65;;;;;;;3.59;100.00;101794.88;10392090;28;20458;-78
2023/03/27 02:22:10;;;;;;;2.53;1.15;;;;;;;3.30;100.00;101795.50;10359078;28;20115;-78
2023/03/27 02:27:24;;;;;;;1.20;1.20;;;;;;;2.99;100.00;101781.97;10375867;28;20048;-79
2023/03/27 02:32:54;;;;;;;2.97;1.73;;;;;;;2.84;100.00;101785.94;10393062;28;20049;-78
2023/03/27 02:38:08;;;;;;;6.63;1.00;;;;;;;2.69;100.00;101788.03;10376690;28;20057;-78
2023/03/27 02:43:31;;;;;;;2.35;1.35;;;;;;;2.54;100.00;101792.78;10375091;28;20033;-78
2023/03/27 02:48:43;;;;;;;5.35;1.20;;;;;;;2.22;100.00;101798.03;10387378;28;20450;-79
2023/03/27 02:53:56;;;;;;;5.05;1.85;;;;;;;1.97;100.00;101803.59;10388429;28;20099;-79
2023/03/27 02:58:59;;;;;;;1.20;1.20;;;;;;;1.81;100.00;101812.78;10374829;28;20512;-78
2023/03/27 03:04:29;;;;;;;1.65;1.55;;;;;;;1.73;100.00;101820.53;10373537;28;20454;-78
2023/03/27 03:09:30;;;;;;;1.95;1.23;;;;;;;1.72;100.00;101824.16;10369116;28;20393;-78
2023/03/27 03:14:32;;;;;;;1.73;1.63;;;;;;;1.88;100.00;101834.53;10391065;28;20045;-78
2023/03/27 03:19:33;;;;;;;9.52;2.33;;;;;;;2.27;100.00;101861.81;10391473;28;20029;-77
2023/03/27 03:24:40;;;;;;;1.60;1.50;;;;;;;2.55;100.00;101866.69;10374382;28;20054;-78
2023/03/27 03:29:42;;;;;;;6.50;2.10;;;;;;;2.76;100.00;101861.44;10389372;28;20034;-77
2023/03/27 03:34:45;;;;;;;3.63;1.70;;;;;;;2.84;100.00;101863.50;10373184;28;20037;-77
2023/03/27 03:39:45;;;;;;;7.72;2.38;;;;;;;2.78;100.00;101859.50;10356679;28;20597;-77
2023/03/27 03:44:46;;;;;;;4.70;2.15;;;;;;;2.71;100.00;101868.13;10380720;28;20124;-77
2023/03/27 03:49:46;;;;;;;2.00;1.52;;;;;;;2.65;100.00;101872.16;10381711;28;20084;-77
2023/03/27 03:54:47;;;;;;;4.60;1.65;;;;;;;2.58;100.00;101884.28;10382085;28;20049;-77
2023/03/27 03:59:47;;;;;;;5.47;2.28;;;;;;;2.45;100.00;101892.44;10379915;28;20040;-76
2023/03/27 04:04:48;;;;;;;11.73;2.25;;;;;;;2.47;100.00;101900.34;10379318;28;20046;-76
2023/03/27 04:09:49;;;;;;;13.35;1.85;;;;;;;2.55;100.00;101898.78;10381290;28;20448;-76
2023/03/27 04:14:50;;;;;;;5.38;2.50;;;;;;;2.55;100.00;101908.59;10380623;28;20022;-76
2023/03/27 04:19:53;;;;;;;4.47;1.85;;;;;;;2.47;100.00;101908.34;10396133;28;20116;-76
2023/03/27 04:24:53;;;;;;;1.73;1.63;;;;;;;2.37;100.00;101924.28;10380259;28;20049;-76
2023/03/27 04:29:53;;;;;;;5.82;2.38;;;;;;;2.52;100.00;101931.09;10379782;28;20045;-76
2023/03/27 04:34:54;;;;;;;6.35;2.00;;;;;;;2.83;100.00;101934.00;10380153;28;20037;-78
2023/03/27 04:39:54;;;;;;;3.92;2.53;;;;;;;3.13;100.00;101940.59;10379929;28;20076;-76
2023/03/27 04:44:55;;;;;;;6.40;2.08;;;;;;;3.29;100.00;101943.72;10380431;28;20096;-79
2023/03/27 04:49:57;;;;;;;2.55;1.77;;;;;;;3.41;100.00;101971.31;10379680;28;20049;-79
2023/03/27 04:54:58;;;;;;;7.38;1.92;;;;;;;3.42;100.00;101962.31;10378350;28;20026;-79
2023/03/27 04:59:59;;;;;;;6.15;2.47;;;;;;;3.24;100.00;101968.16;10379793;28;20038;-79
2023/03/27 05:05:00;;;;;;;5.32;2.70;;;;;;;3.02;100.00;101963.69;10378282;28;20124;-76
2023/03/27 05:10:01;;;;;;;3.67;1.95;;;;;;;2.92;100.00;101970.75;10377232;28;20470;-75
2023/03/27 05:15:05;;;;;;;3.22;1.85;;;;;;;2.76;100.00;101979.13;10379315;28;20034;-78
2023/03/27 05:20:07;;;;;;;5.53;2.58;;;;;;;2.46;100.00;101982.38;10318451;28;20037;-77
2023/03/27 05:25:07;;;;;;;10.35;2.10;;;;;;;2.27;100.00;101987.44;10377555;28;20490;-78
2023/03/27 05:30:08;;;;;;;11.30;2.85;;;;;;;2.10;100.00;101991.34;10379803;28;20037;-77
2023/03/27 05:35:10;;;;;;;2.97;2.05;;;;;;;2.01;100.00;102000.94;10392087;28;20133;-77
2023/03/27 05:40:12;;;;;;;11.63;3.08;;;;;;;1.97;100.00;101999.44;10377217;28;20045;-77
2023/03/27 05:45:13;;;;;;;8.32;3.42;;;;;;;1.97;100.00;101993.25;10377928;28;20032;-77
2023/03/27 05:50:14;;;;;;;12.73;3.15;;;;;;;2.19;100.00;101997.84;10377539;28;20042;-77
2023/03/27 05:55:15;;;;;;;10.50;4.25;;;;;;;2.54;100.00;102006.69;10391728;28;20247;-77
2023/03/27 06:00:16;;;;;;;7.05;3.00;;;;;;;2.84;100.00;102013.31;10376295;28;20117;-78
2023/03/27 06:05:17;;;;;;;18.85;3.78;;;;;;;3.03;100.00;102023.41;10374947;28;20045;-78
2023/03/27 06:10:19;;;;;;;13.90;4.70;;;;;;;3.10;100.00;102029.16;10374496;28;20410;-78
2023/03/27 06:15:19;;;;;;;12.18;3.33;;;;;;;3.18;100.00;102035.56;10375838;28;20026;-78
2023/03/27 06:20:21;;;;;;;6.07;3.20;;;;;;;3.39;100.00;102051.78;10374388;28;20473;-78
2023/03/27 06:25:22;;;;;;;17.25;3.03;;;;;;;4.50;100.00;102048.03;10375432;28;20512;-79
2023/03/27 06:30:24;;;;;;;11.55;2.47;;;;;;;5.36;100.00;102055.78;10391595;28;20049;-78
2023/03/27 06:35:28;;;;;;;10.75;2.45;;;;;;;5.79;100.00;102060.00;10373809;28;20029;-78
2023/03/27 06:40:30;;;;;;;5.90;2.80;;;;;;;5.55;100.00;102071.13;10390848;28;20025;-78
2023/03/27 06:45:32;;;;;;;3.00;2.55;;;;;;;4.82;100.00;102064.09;10390570;28;20036;-78
2023/03/27 06:50:32;;;;;;;9.50;1.98;;;;;;;4.46;100.00;102078.78;10374200;28;20033;-78
2023/03/27 06:55:33;;;;;;;14.05;2.67;;;;;;;4.43;100.00;102086.13;10373364;28;20117;-79
2023/03/27 07:00:36;;;;;;;3.35;1.67;;;;;;;4.27;100.00;102084.84;10374876;28;20029;-78
2023/03/27 07:05:37;;;;;;;3.63;1.85;;;;;;;5.11;100.00;102102.72;10373089;28;20622;-79
2023/03/27 07:10:38;;;;;;;2.75;1.80;;;;;;;7.15;100.00;102092.31;10373934;28;20071;-79
2023/03/27 07:15:40;;;;;;;2.42;2.03;;;;;;;8.45;100.00;102091.38;10389271;28;20045;-79
2023/03/27 07:20:40;;;;;;;1.88;1.52;;;;;;;9.21;100.00;102104.31;10390167;28;20085;-79
2023/03/27 07:25:41;;;;;;;3.58;1.55;;;;;;;8.30;100.00;102115.34;10374169;28;20477;-78
2023/03/27 07:30:41;;;;;;;2.78;1.75;;;;;;;8.89;100.00;102118.44;10373113;28;20054;-78
2023/03/27 07:35:45;;;;;;;9.25;2.80;;;;;;;9.60;100.00;102122.78;10373814;28;20472;-78
2023/03/27 07:40:45;;;;;;;7.82;2.42;;;;;;;10.27;100.00;102123.72;10372857;28;20034;-78
2023/03/27 07:45:46;;;;;;;3.22;1.40;;;;;;;8.00;100.00;102138.94;10375066;28;20068;-78
2023/03/27 07:50:46;;;;;;;2.53;1.65;;;;;;;8.82;100.00;102148.75;10372130;28;20030;-77
2023/03/27 07:55:47;;;;;;;4.22;1.75;;;;;;;10.08;100.00;102140.22;10372098;28;20055;-78
2023/03/27 08:00:51;;;;;;;3.45;1.52;;;;;;;10.79;100.00;102142.44;10371822;28;20485;-77
2023/03/27 08:05:53;;;;;;;9.85;1.35;;;;;;;11.90;100.00;102149.06;10374034;28;20523;-78
2023/03/27 08:10:53;;;;;;;17.42;2.05;;;;;;;12.26;100.00;102166.56;10355226;28;20029;-78
2023/03/27 08:16:05;;;;;;;1.30;0.90;;;;;;;12.62;100.00;102171.44;10371609;28;20165;-79
2023/03/27 08:21:07;;;;;;;5.15;1.23;;;;;;;12.99;100.00;102177.97;10372442;28;20078;-79
2023/03/27 08:26:07;;;;;;;4.07;1.83;;;;;;;12.48;100.00;102175.78;10371559;28;20030;-78
2023/03/27 08:31:13;;;;;;;4.68;1.20;;;;;;;10.73;100.00;102185.63;10378155;28;20465;-78
2023/03/27 08:36:13;;;;;;;5.72;1.50;;;;;;;9.53;100.00;102195.59;10380875;28;20069;-79
2023/03/27 08:41:25;;;;;;;1.63;1.52;;;;;;;9.93;100.00;102203.09;10379131;28;20049;-78
2023/03/27 08:46:29;;;;;;;3.40;1.55;;;;;;;11.33;100.00;102196.16;10395816;28;20091;-79
2023/03/27 08:51:47;;;;;;;1.83;1.10;;;;;;;12.45;100.00;102195.16;10377825;28;20034;-79
2023/03/27 08:56:48;;;;;;;4.47;1.63;;;;;;;12.39;100.00;102224.91;10378333;28;20030;-79
2023/03/27 09:01:53;;;;;;;3.22;1.23;;;;;;;12.24;100.00;102225.63;10362250;28;20129;-78
2023/03/27 09:07:00;;;;;;;5.07;1.73;;;;;;;12.29;100.00;102225.97;10378676;28;20041;-79
2023/03/27 09:12:29;;;;;;;7.90;1.65;;;;;;;12.17;100.00;102238.22;10393861;28;20450;-79
2023/03/27 09:17:33;;;;;;;8.20;2.30;;;;;;;11.63;100.00;102246.13;10379355;28;20399;-79
2023/03/27 09:22:39;;;;;;;5.57;1.55;;;;;;;11.32;100.00;102259.53;10393056;28;20115;-78
2023/03/27 09:27:40;;;;;;;12.88;1.98;;;;;;;10.10;100.00;102263.56;10376820;28;20453;-78
2023/03/27 09:32:41;;;;;;;5.00;1.98;;;;;;;9.08;100.00;102262.28;10393456;28;20065;-80
2023/03/27 09:37:42;;;;;;;5.30;2.17;;;;;;;9.61;100.00;102267.81;10378689;28;20101;-79
2023/03/27 09:42:43;;;;;;;5.32;1.67;;;;;;;12.43;100.00;102264.28;10375502;28;20034;-80
2023/03/27 09:48:04;;;;;;;5.50;1.52;;;;;;;13.21;100.00;102252.44;10392255;28;20076;-80
2023/03/27 09:53:12;;;;;;;5.15;1.58;;;;;;;13.16;100.00;102257.56;10360829;28;20374;-79
2023/03/27 09:58:17;;;;;;;6.32;1.38;;;;;;;10.27;100.00;102296.16;10360331;28;20451;-80
2023/03/27 10:03:19;;;;;;;7.53;1.38;;;;;;;8.93;100.00;102284.59;10391234;28;20026;-78
2023/03/27 10:08:22;;;;;;;6.57;1.40;;;;;;;11.05;100.00;102290.53;10376009;28;20038;-79
2023/03/27 10:13:28;;;;;;;5.10;1.13;;;;;;;11.68;100.00;102302.59;10377277;28;20030;-80
2023/03/27 10:18:30;;;;;;;3.97;2.20;;;;;;;9.38;100.00;102310.72;10375671;28;20053;-79
2023/03/27 10:23:48;;;;;;;1.98;1.73;;;;;;;7.98;100.00;102323.53;10358817;28;20499;-79
2023/03/27 10:28:50;;;;;;;2.78;1.50;;;;;;;9.56;100.00;102322.38;10374070;28;20029;-81
2023/03/27 10:33:51;;;;;;;6.72;2.20;;;;;;;11.22;100.00;102318.50;10390412;28;20034;-80
2023/03/27 10:38:57;;;;;;;3.05;1.65;;;;;;;12.58;100.00;102322.28;10357569;28;20469;-80
2023/03/27 10:43:57;;;;;;;1.30;1.30;;;;;;;13.06;100.00;102331.22;10375035;28;20480;-79
2023/03/27 10:49:04;;;;;;;6.07;1.27;;;;;;;13.13;100.00;102348.53;10389641;28;20061;-80
2023/03/27 10:54:21;;;;;;;2.00;1.42;;;;;;;13.34;100.00;102325.31;10358459;28;20041;-81
2023/03/27 10:59:28;;;;;;;5.40;1.92;;;;;;;14.02;100.00;102337.16;10389859;28;20057;-80
2023/03/27 11:04:40;;;;;;;;;;;;;;;13.64;100.00;102335.25;10374546;28;20100;-80
2023/03/27 11:09:51;;;;;;;2.38;1.13;;;;;;;11.61;100.00;102351.25;10373018;28;19909;-80
2023/03/27 11:15:00;;;;;;;5.85;1.15;;;;;;;12.18;100.00;102353.97;10388965;28;20026;-80
2023/03/27 11:20:06;;;;;;;5.68;1.65;;;;;;;13.42;100.00;102357.88;10390204;28;20037;-80
2023/03/27 11:25:31;;;;;;;1.13;1.10;;;;;;;13.73;100.00;102363.28;10373182;28;20427;-80
2023/03/27 11:30:31;;;;;;;1.73;1.30;;;;;;;13.94;100.00;102368.88;10373881;28;20427;-81
2023/03/27 11:35:49;;;;;;;2.08;1.13;;;;;;;13.93;100.00;102382.66;10374443;28;20112;-81
2023/03/27 11:40:50;;;;;;;3.00;1.52;;;;;;;14.13;100.00;102381.13;10374523;28;20037;-80
2023/03/27 11:46:15;;;;;;;2.08;1.88;;;;;;;14.61;100.00;102383.53;10372313;28;20108;-81
2023/03/27 11:51:25;;;;;;;2.63;2.33;;;;;;;14.95;100.00;102382.13;10377165;28;20441;-81
2023/03/27 11:56:47;;;;;;;2.05;1.30;;;;;;;14.05;100.00;102383.09;10396896;28;20036;-80
2023/03/27 12:02:19;;;;;;;1.88;1.60;;;;;;;14.30;100.00;102405.50;10386246;28;20053;-81
2023/03/27 12:07:31;;;;;;;2.88;1.60;;;;;;;14.46;100.00;102401.78;10368660;28;20555;-80
2023/03/27 12:13:07;;;;;;;8.02;1.67;;;;;;;14.60;100.00;102396.34;10402333;28;20037;-81
2023/03/27 12:18:11;;;;;;;2.33;1.42;;;;;;;14.24;100.00;102398.06;10382083;28;20104;-81
2023/03/27 12:23:20;;;;;;;3.72;1.38;;;;;;;14.60;100.00;102399.06;10380204;28;20050;-81
2023/03/27 12:29:02;;;;;;;3.20;1.60;;;;;;;14.27;100.00;102404.00;10379909;28;20452;-81
2023/03/27 12:34:03;;;;;;;2.67;1.42;;;;;;;13.74;100.00;102400.34;10335584;28;20031;-82
2023/03/27 12:39:23;;;;;;;3.75;2.15;;;;;;;14.54;100.00;102405.25;10361559;28;20041;-81
2023/03/27 12:44:30;;;;;;;2.05;1.42;;;;;;;13.47;100.00;102420.81;10364817;28;20033;-81
2023/03/27 12:49:41;;;;;;;9.05;1.83;;;;;;;13.12;100.00;102423.00;10380228;28;20176;-81
2023/03/27 12:54:42;;;;;;;6.03;2.00;;;;;;;13.31;100.00;102439.94;10395801;28;20395;-81
2023/03/27 12:59:45;;;;;;;6.05;2.20;;;;;;;13.91;100.00;102423.72;10378378;28;20066;-81
2023/03/27 13:04:51;;;;;;;9.35;1.70;;;;;;;14.14;100.00;102420.97;10378523;28;20034;-81
2023/03/27 13:10:07;;;;;;;1.83;1.67;;;;;;;13.78;100.00;102422.63;10378682;28;20044;-82
2023/03/27 13:15:19;;;;;;;1.85;1.70;;;;;;;12.75;100.00;102437.22;10376615;28;20390;-81
2023/03/27 13:20:33;;;;;;;1.95;1.85;;;;;;;13.36;100.00;102426.63;10378791;28;20038;-81
2023/03/27 13:26:00;;;;;;;6.93;2.78;;;;;;;12.31;100.00;102435.78;10376916;28;20439;-81
2023/03/27 13:31:03;;;;;;;5.47;2.05;;;;;;;12.86;100.00;102423.28;10378384;28;20038;-81
2023/03/27 13:36:13;;;;;;;1.83;1.70;;;;;;;13.84;100.00;102432.78;10393647;28;20034;-81
2023/03/27 13:41:48;;;;;;;2.90;1.13;;;;;;;12.85;100.00;102435.16;10378218;28;20030;-82
2023/03/27 13:47:02;;;;;;;3.88;1.60;;;;;;;12.16;100.00;102451.09;10377164;28;20026;-82
2023/03/27 13:52:21;;;;;;;6.45;2.30;;;;;;;13.38;100.00;102433.59;10377132;28;20034;-81
2023/03/27 13:57:47;;;;;;;3.22;1.95;;;;;;;12.12;100.00;102440.72;10377406;28;20038;-81
2023/03/27 14:02:59;;;;;;;4.10;1.50;;;;;;;11.97;100.00;102440.56;10392266;28;20029;-82
2023/03/27 14:08:11;;;;;;;10.18;1.73;;;;;;;13.14;100.00;102439.13;10390901;28;20176;-81
2023/03/27 14:13:12;;;;;;;3.42;2.15;;;;;;;12.95;100.00;102443.94;10391964;28;20061;-81
2023/03/27 14:18:46;;;;;;;2.10;1.30;;;;;;;11.82;100.00;102454.75;10376191;28;20068;-81
2023/03/27 14:23:59;;;;;;;5.18;2.50;;;;;;;12.39;100.00;102447.66;10383212;28;20285;-81
2023/03/27 14:29:00;;;;;;;6.75;2.45;;;;;;;13.04;100.00;102448.31;10383490;28;20129;-81
2023/03/27 14:34:08;;;;;;;3.67;1.65;;;;;;;12.36;100.00;102450.72;10374779;28;20522;-81
2023/03/27 14:39:16;;;;;;;4.50;2.25;;;;;;;12.52;100.00;102465.13;10376711;28;20032;-81
2023/03/27 14:44:18;;;;;;;8.27;1.85;;;;;;;11.97;100.00;102473.97;10375637;28;20049;-81
2023/03/27 14:49:23;;;;;;;1.92;1.50;;;;;;;10.99;100.00;102479.06;10358036;28;20076;-82
2023/03/27 14:54:27;;;;;;;8.63;2.03;;;;;;;10.06;100.00;102472.47;10375675;28;20121;-82
2023/03/27 14:59:36;;;;;;;6.60;2.45;;;;;;;10.17;100.00;102486.59;10379737;28;20036;-81
2023/03/27 15:04:37;;;;;;;2.60;1.85;;;;;;;10.24;100.00;102476.84;10375890;28;20113;-82
2023/03/27 15:09:37;;;;;;;1.52;1.42;;;;;;;9.83;100.00;102477.47;10376383;28;20038;-82
2023/03/27 15:14:38;;;;;;;5.25;1.90;;;;;;;9.16;100.00;102485.88;10378636;28;20029;-82
2023/03/27 15:19:47;;;;;;;1.42;1.23;;;;;;;8.64;100.00;102496.25;10374378;28;20045;-81
2023/03/27 15:25:07;;;;;;;4.55;2.28;;;;;;;8.29;100.00;102510.34;10374535;28;20493;-81
2023/03/27 15:30:36;;;;;;;3.92;1.52;;;;;;;8.15;100.00;102512.50;10374007;28;20037;-81
2023/03/27 15:35:41;;;;;;;4.80;1.58;;;;;;;8.27;100.00;102521.31;10375137;28;20142;-81
2023/03/27 15:40:43;;;;;;;4.28;2.00;;;;;;;8.36;100.00;102522.31;10397493;28;20052;-81
2023/03/27 15:45:53;;;;;;;6.88;1.58;;;;;;;8.07;100.00;102530.38;10381440;28;20540;-81
2023/03/27 15:51:26;;;;;;;4.53;2.05;;;;;;;7.99;100.00;102541.03;10383027;28;20391;-81
2023/03/27 15:56:42;;;;;;;8.05;1.80;;;;;;;7.85;100.00;102542.31;10382794;28;20087;-81
2023/03/27 16:01:52;;;;;;;2.55;1.52;;;;;;;7.74;100.00;102542.41;10382825;28;20073;-81
2023/03/27 16:06:54;;;;;;;13.38;3.38;;;;;;;7.69;100.00;102548.22;10382304;28;20033;-81
2023/03/27 16:11:56;;;;;;;4.35;1.90;;;;;;;7.60;100.00;102541.81;10397431;28;20488;-81
2023/03/27 16:17:13;;;;;;;5.82;1.08;;;;;;;7.51;100.00;102547.16;10382292;28;20038;-81
2023/03/27 16:22:19;;;;;;;1.95;1.65;;;;;;;7.81;100.00;102557.03;10383047;28;20116;-81
2023/03/27 16:27:22;;;;;;;6.10;1.92;;;;;;;7.86;100.00;102552.09;10380093;28;20145;-80
2023/03/27 16:32:23;;;;;;;5.60;2.30;;;;;;;7.84;100.00;102554.91;10379916;28;20033;-81
2023/03/27 16:37:24;;;;;;;2.55;1.58;;;;;;;7.95;100.00;102559.34;10380309;28;20121;-81
2023/03/27 16:42:25;;;;;;;4.65;1.65;;;;;;;7.79;100.00;102553.63;10388369;28;20037;-81
2023/03/27 16:47:25;;;;;;;3.85;1.42;;;;;;;7.21;100.00;102571.31;10386729;28;20034;-80
2023/03/27 16:52:26;;;;;;;8.43;2.45;;;;;;;6.71;100.00;102570.31;10386159;28;20048;-81
2023/03/27 16:57:26;;;;;;;5.72;1.98;;;;;;;6.44;100.00;102568.94;10379775;28;20030;-81
2023/03/27 17:02:28;;;;;;;6.32;2.60;;;;;;;6.28;100.00;102566.69;10379701;28;20081;-81
2023/03/27 17:07:28;;;;;;;8.57;2.08;;;;;;;6.18;100.00;102562.22;10380025;28;20069;-81
2023/03/27 17:12:29;;;;;;;6.47;2.38;;;;;;;6.11;100.00;102585.25;10378441;28;20050;-82
2023/03/27 17:17:30;;;;;;;5.75;1.63;;;;;;;6.11;100.00;102585.25;10379580;28;20049;-81
2023/03/27 17:22:31;;;;;;;2.15;1.95;;;;;;;6.07;100.00;102579.28;10379716;28;20453;-81
2023/03/27 17:27:32;;;;;;;7.22;1.92;;;;;;;6.14;100.00;102588.53;10379299;28;20034;-81
2023/03/27 17:32:32;;;;;;;7.97;2.35;;;;;;;6.32;100.00;102583.47;10377340;28;20034;-81
2023/03/27 17:37:34;;;;;;;4.28;2.38;;;;;;;6.47;100.00;102597.44;10378144;28;20041;-81
2023/03/27 17:42:35;;;;;;;4.30;2.40;;;;;;;6.37;100.00;102601.91;10361884;28;20377;-81
2023/03/27 17:47:35;;;;;;;5.32;2.63;;;;;;;6.16;100.00;102616.16;10394300;28;20133;-81
2023/03/27 17:52:36;;;;;;;13.05;4.45;;;;;;;5.90;100.00;102615.56;10376285;28;20050;-81
2023/03/27 17:57:38;;;;;;;4.25;2.15;;;;;;;5.74;100.00;102626.72;10376513;28;20065;-81
2023/03/27 18:02:38;;;;;;;2.35;1.80;;;;;;;5.55;100.00;102627.34;10378716;28;20034;-81
2023/03/27 18:07:39;;;;;;;8.85;2.67;;;;;;;5.45;100.00;102625.47;10392788;28;20033;-81
2023/03/27 18:12:40;;;;;;;2.67;1.90;;;;;;;5.34;100.00;102637.09;10377725;28;20454;-81
2023/03/27 18:17:40;;;;;;;11.38;2.58;;;;;;;5.18;100.00;102639.28;10375347;28;20393;-81
2023/03/27 18:22:40;;;;;;;8.32;1.63;;;;;;;5.08;100.00;102641.81;10377069;28;20049;-81
2023/03/27 18:27:43;;;;;;;2.97;2.15;;;;;;;4.99;100.00;102639.84;10374867;28;20030;-81
2023/03/27 18:32:44;;;;;;;3.53;2.17;;;;;;;4.92;100.00;102647.50;10391688;28;20085;-80
2023/03/27 18:37:45;;;;;;;11.13;2.78;;;;;;;4.84;100.00;102641.84;10376153;28;20125;-81
2023/03/27 18:42:46;;;;;;;9.38;2.38;;;;;;;4.75;100.00;102646.09;10374959;28;20052;-81
2023/03/27 18:47:46;;;;;;;7.60;2.33;;;;;;;4.70;100.00;102634.88;10359884;28;20037;-81
2023/03/27 18:52:46;;;;;;;2.13;1.98;;;;;;;4.56;100.00;102635.94;10402868;28;20034;-81
2023/03/27 18:57:47;;;;;;;8.82;2.67;;;;;;;4.48;100.00;102642.81;10386652;28;20359;-81
2023/03/27 19:02:47;;;;;;;12.70;2.90;;;;;;;4.37;100.00;102654.34;10378761;28;20061;-81
2023/03/27 19:07:48;;;;;;;6.78;2.28;;;;;;;4.34;100.00;102660.81;10382641;28;20116;-81
2023/03/27 19:12:49;;;;;;;16.77;2.83;;;;;;;4.32;100.00;102660.06;10379273;28;20042;-81
2023/03/27 19:17:49;;;;;;;16.13;7.03;;;;;;;4.24;100.00;102657.06;10376526;28;20077;-80
2023/03/27 19:22:50;;;;;;;8.68;2.60;;;;;;;4.16;100.00;102652.28;10375663;28;20058;-81
2023/03/27 19:27:50;;;;;;;9.50;2.50;;;;;;;4.24;100.00;102656.22;10391010;28;20053;-80
2023/03/27 19:32:51;;;;;;;4.40;2.05;;;;;;;4.24;100.00;102654.38;10391068;28;20034;-81
2023/03/27 19:37:51;;;;;;;10.98;2.58;;;;;;;4.20;100.00;102648.41;10376246;28;20097;-82
2023/03/27 19:42:52;;;;;;;6.88;1.95;;;;;;;4.19;100.00;102643.16;10357758;28;20061;-76
2023/03/27 19:47:52;;;;;;;12.73;3.13;;;;;;;4.12;100.00;102652.63;10374010;28;20038;-81
2023/03/27 19:52:53;;;;;;;12.15;3.65;;;;;;;4.08;100.00;102643.94;10389423;28;20477;-81
2023/03/27 19:57:53;;;;;;;8.70;2.25;;;;;;;4.11;100.00;102653.59;10375888;28;20120;-81
2023/03/27 20:02:54;;;;;;;15.27;3.13;;;;;;;4.02;100.00;102660.50;10373435;28;20326;-81
2023/03/27 20:07:54;;;;;;;5.50;2.60;;;;;;;3.88;100.00;102656.13;10373754;28;20103;-81
2023/03/27 20:12:55;;;;;;;13.07;1.88;;;;;;;3.87;100.00;102649.03;10373646;28;20117;-81
2023/03/27 20:17:55;;;;;;;4.43;2.47;;;;;;;3.89;100.00;102648.91;10373376;28;20473;-81
2023/03/27 20:22:56;;;;;;;7.97;3.03;;;;;;;3.81;100.00;102652.16;10379488;28;20244;-81
2023/03/27 20:27:57;;;;;;;5.10;2.10;;;;;;;3.69;100.00;102655.72;10399269;28;20042;-82
2023/03/27 20:32:57;;;;;;;8.77;2.30;;;;;;;3.52;100.00;102658.75;10380347;28;20034;-81
2023/03/27 20:38:03;;;;;;;2.25;1.73;;;;;;;3.52;100.00;102661.44;10380522;28;20442;-81
2023/03/27 20:43:04;;;;;;;5.65;1.83;;;;;;;3.46;100.00;102666.25;10381508;28;20030;-81
2023/03/27 20:48:07;;;;;;;5.47;2.10;;;;;;;3.38;100.00;102665.94;10380961;28;20057;-82
2023/03/27 20:53:11;;;;;;;12.35;2.22;;;;;;;3.20;100.00;102670.75;10394918;28;20386;-80
2023/03/27 20:58:11;;;;;;;6.55;2.35;;;;;;;3.09;100.00;102672.44;10380836;28;20117;-82
2023/03/27 21:03:11;;;;;;;6.90;2.03;;;;;;;3.02;100.00;102675.53;10378619;28;20038;-81
2023/03/27 21:08:12;;;;;;;5.60;2.75;;;;;;;2.97;100.00;102671.47;10362181;28;20054;-82
2023/03/27 21:13:12;;;;;;;16.80;2.58;;;;;;;2.85;100.00;102673.16;10386611;28;20033;-82
2023/03/27 21:18:13;;;;;;;4.03;2.13;;;;;;;2.82;100.00;102677.84;10379962;28;20041;-82
2023/03/27 21:23:13;;;;;;;10.38;2.38;;;;;;;2.77;100.00;102670.13;10399237;28;20050;-82
2023/03/27 21:28:13;;;;;;;13.63;2.63;;;;;;;2.79;100.00;102678.91;10366494;28;20037;-83
2023/03/27 21:33:17;;;;;;;1.83;1.50;;;;;;;2.77;100.00;102686.19;10381444;28;20045;-78
2023/03/27 21:38:17;;;;;;;4.68;2.47;;;;;;;2.76;100.00;102671.94;10403066;28;20030;-80
2023/03/27 21:43:20;;;;;;;9.23;2.35;;;;;;;2.78;100.00;102674.53;10379111;28;20041;-81
2023/03/27 21:48:20;;;;;;;7.30;1.83;;;;;;;2.76;100.00;102665.75;10392701;28;20030;-81
2023/03/27 21:53:20;;;;;;;8.43;2.45;;;;;;;2.71;100.00;102682.13;10377939;28;20044;-81
2023/03/27 21:58:21;;;;;;;9.90;2.50;;;;;;;2.71;100.00;102683.91;10377826;28;20123;-81
2023/03/27 22:03:21;;;;;;;6.05;2.33;;;;;;;2.63;100.00;102672.88;10376161;28;20092;-81
2023/03/27 22:08:23;;;;;;;8.98;2.53;;;;;;;2.66;100.00;102684.22;10376118;28;20464;-81
2023/03/27 22:13:23;;;;;;;7.10;2.80;;;;;;;2.63;100.00;102683.56;10376172;28;20060;-81
2023/03/27 22:18:23;;;;;;;10.15;2.80;;;;;;;2.54;100.00;102687.72;10375734;28;20049;-81
2023/03/27 22:23:24;;;;;;;8.65;2.20;;;;;;;2.50;100.00;102684.38;10375685;28;20082;-81
2023/03/27 22:28:24;;;;;;;3.90;2.50;;;;;;;2.44;100.00;102684.78;10376114;28;20443;-81
2023/03/27 22:33:25;;;;;;;6.80;2.40;;;;;;;2.38;100.00;102693.22;10375848;28;20069;-81
2023/03/27 22:38:29;;;;;;;5.78;2.10;;;;;;;2.30;100.00;102695.53;10376184;28;20037;-81
2023/03/27 22:43:29;;;;;;;6.90;2.55;;;;;;;2.25;100.00;102690.47;10390647;28;20040;-81
2023/03/27 22:48:30;;;;;;;5.03;2.05;;;;;;;2.16;100.00;102695.56;10390615;28;20030;-80
2023/03/27 22:53:31;;;;;;;3.50;2.65;;;;;;;1.98;100.00;102701.13;10376231;28;20038;-81
2023/03/27 22:58:32;;;;;;;2.45;2.25;;;;;;;1.89;100.00;102693.69;10373963;28;20455;-81
2023/03/27 23:03:32;;;;;;;5.95;2.72;;;;;;;1.76;100.00;102698.94;10373897;28;20041;-81
2023/03/27 23:08:32;;;;;;;17.23;2.80;;;;;;;1.63;100.00;102695.34;10375185;28;20049;-81
2023/03/27 23:13:33;;;;;;;8.00;2.03;;;;;;;1.50;100.00;102703.25;10375680;28;20069;-81
2023/03/27 23:18:34;;;;;;;10.75;3.05;;;;;;;1.39;100.00;102695.88;10390206;28;20030;-81